LGKZ/KZI METAR and TAF weather

Enter ICAO airport designator
Station Type Date Time Source
LGKZ METAR 2021/05/14 12:50 UTC NOAA

LGKZ 141250Z 24006KT 9999 FEW025 SCT070 22/00 Q1013


Station Type Date Time Source
LGKZ Decoded METAR 2021/05/14 12:50 UTC NOAA

Kozani Airport , Greece (LGKZ) 40-18N 021-47E 627M
May 14, 2021 - 08:50 AM EDT / 2021.05.14 1250 UTC
Wind: from the WSW (240 degrees) at 7 MPH (6 KT):0
Visibility: greater than 7 mile(s):0
Sky conditions: partly cloudy
Temperature: 71 F (22 C)
Dew Point: 32 F (0 C)
Relative Humidity: 23%
Pressure (altimeter): 29.91 in. Hg (1013 hPa)
ob: LGKZ 141250Z 24006KT 9999 FEW025 SCT070 22/00 Q1013
cycle: 13

Station Type Date Time Source
LGKZ TAF UTC NOAA

Error!

Example: see airport list